Time;durP1;ratioP1;P1;durP2;ratioP2;P2;SDS_P1;SDS_P2;PMS_P1;PMS_P2;Temp;Humidity;BMP_temperature;BMP_pressure;BME280_temperature;BME280_humidity;BME280_pressure;Samples;Min_cycle;Max_cycle;Signal;HPM_P1;HPM_P2
2023/12/24 00:00:25;;;;;;;7.05;3.25;;;;;;;1.05;81.83;97980.97;1729288;83;20996;-64
2023/12/24 00:02:54;;;;;;;10.43;4.22;;;;;;;1.08;81.95;97985.45;1713168;83;21115;-65
2023/12/24 00:05:24;;;;;;;7.15;3.30;;;;;;;1.11;81.91;97986.92;1729398;83;21068;-64
2023/12/24 00:07:53;;;;;;;7.42;3.60;;;;;;;1.10;81.42;97983.91;1729535;83;21048;-63
2023/12/24 00:10:23;;;;;;;7.28;3.42;;;;;;;1.04;81.11;97985.52;1729252;83;21083;-65
2023/12/24 00:12:52;;;;;;;7.65;4.05;;;;;;;1.00;81.10;97986.95;1729328;83;21091;-64
2023/12/24 00:15:21;;;;;;;10.20;3.55;;;;;;;1.00;81.14;97990.16;1729247;83;21049;-65
2023/12/24 00:17:50;;;;;;;5.62;2.95;;;;;;;0.99;81.16;97993.37;1729439;83;21032;-65
2023/12/24 00:20:19;;;;;;;8.48;3.50;;;;;;;0.99;81.24;97991.19;1729358;83;21012;-65
2023/12/24 00:23:07;;;;;;;7.15;2.85;;;;;;;0.99;81.12;97999.27;1729384;83;21060;-65
2023/12/24 00:25:36;;;;;;;5.95;2.65;;;;;;;0.97;81.32;98004.03;1729275;83;21021;-64
2023/12/24 00:28:06;;;;;;;4.72;2.95;;;;;;;0.97;81.49;98006.20;1729531;83;21020;-65
2023/12/24 00:30:35;;;;;;;5.75;2.98;;;;;;;0.99;81.28;98010.05;1729313;83;21518;-64
2023/12/24 00:33:04;;;;;;;5.90;3.22;;;;;;;0.99;80.98;98004.15;1729463;83;21056;-66
2023/12/24 00:35:34;;;;;;;7.25;3.45;;;;;;;0.97;80.76;98014.81;1729695;83;21483;-64
2023/12/24 00:38:03;;;;;;;6.62;3.10;;;;;;;0.94;80.53;98014.69;1729210;83;21099;-64
2023/12/24 00:40:32;;;;;;;6.92;3.20;;;;;;;0.92;80.70;98020.27;1729388;83;21037;-65
2023/12/24 00:43:01;;;;;;;7.05;2.98;;;;;;;0.94;80.77;98027.65;1729297;83;21088;-65
2023/12/24 00:45:30;;;;;;;5.53;2.87;;;;;;;0.97;80.99;98033.68;1729288;83;21468;-65
2023/12/24 00:47:59;;;;;;;6.35;2.92;;;;;;;0.96;80.68;98023.41;1729316;83;21068;-64
2023/12/24 00:50:29;;;;;;;5.45;2.80;;;;;;;0.97;80.60;98025.59;1732349;82;21020;-65
2023/12/24 00:52:58;;;;;;;5.95;2.72;;;;;;;0.94;80.40;98022.26;1753380;82;21044;-65
2023/12/24 00:55:26;;;;;;;5.90;2.75;;;;;;;0.95;80.42;98026.63;1753223;82;21463;-66
2023/12/24 00:57:55;;;;;;;9.48;2.80;;;;;;;0.95;80.33;98024.44;1753134;82;21098;-64
2023/12/24 01:00:23;;;;;;;6.78;2.80;;;;;;;0.95;80.39;98030.66;1753205;82;21035;-65
2023/12/24 01:02:52;;;;;;;5.50;2.75;;;;;;;0.95;80.22;98032.02;1753386;82;21027;-65
2023/12/24 01:05:21;;;;;;;6.95;2.42;;;;;;;0.93;80.42;98043.50;1753138;82;21028;-65
2023/12/24 01:07:50;;;;;;;5.17;2.62;;;;;;;0.94;80.39;98041.64;1753415;82;21039;-65
2023/12/24 01:10:19;;;;;;;7.55;3.40;;;;;;;0.98;80.24;98031.30;1753346;82;21078;-65
2023/12/24 01:12:48;;;;;;;9.53;4.17;;;;;;;0.99;80.17;98038.36;1753213;82;21077;-64
2023/12/24 01:15:16;;;;;;;6.12;3.52;;;;;;;1.00;80.20;98038.69;1753197;82;21074;-66
2023/12/24 01:17:45;;;;;;;8.63;3.50;;;;;;;0.99;80.23;98043.23;1753152;82;21003;-64
2023/12/24 01:20:18;;;;;;;7.20;3.30;;;;;;;0.98;80.28;98044.27;1753191;82;21051;-65
2023/12/24 01:22:47;;;;;;;8.28;3.27;;;;;;;0.99;80.24;98045.10;1753424;82;21043;-65
2023/12/24 01:25:16;;;;;;;7.58;3.55;;;;;;;0.95;80.12;98040.10;1753208;82;21526;-64
2023/12/24 01:27:44;;;;;;;7.42;2.60;;;;;;;0.95;80.22;98046.84;1753196;82;21034;-66
2023/12/24 01:30:13;;;;;;;4.95;2.62;;;;;;;0.95;80.43;98052.23;1753351;82;20991;-65
2023/12/24 01:32:42;;;;;;;9.60;4.17;;;;;;;0.98;80.58;98051.52;1753142;82;21078;-65
2023/12/24 01:35:11;;;;;;;6.35;3.17;;;;;;;0.98;80.65;98050.17;1753189;82;21074;-64
2023/12/24 01:37:39;;;;;;;5.70;3.00;;;;;;;0.99;80.55;98054.54;1753422;82;21459;-66
2023/12/24 01:40:09;;;;;;;6.62;2.75;;;;;;;0.98;80.39;98048.83;1753386;82;21042;-65
2023/12/24 01:42:37;;;;;;;7.10;3.70;;;;;;;0.97;80.38;98056.59;1724363;82;21003;-65
2023/12/24 01:45:07;;;;;;;5.85;2.92;;;;;;;0.99;80.65;98051.84;1753184;82;21469;-65
2023/12/24 01:47:35;;;;;;;8.00;3.42;;;;;;;1.01;80.73;98057.87;1753182;82;21090;-65
2023/12/24 01:50:07;;;;;;;10.28;3.50;;;;;;;1.02;80.78;98061.72;1753474;82;21046;-65
2023/12/24 01:52:36;;;;;;;7.28;3.05;;;;;;;1.02;80.44;98063.59;1732777;82;21052;-64
2023/12/24 01:55:06;;;;;;;10.23;3.75;;;;;;;1.01;80.45;98065.96;1729227;83;21048;-64
2023/12/24 01:57:35;;;;;;;7.17;2.90;;;;;;;1.03;80.58;98076.03;1729425;83;21056;-64
2023/12/24 02:00:05;;;;;;;8.30;2.98;;;;;;;1.03;80.65;98079.56;1729478;83;21020;-64
2023/12/24 02:02:36;;;;;;;8.10;2.98;;;;;;;1.04;80.58;98084.45;1729264;83;21032;-65
2023/12/24 02:05:05;;;;;;;6.05;2.65;;;;;;;1.04;80.65;98087.98;1729713;83;21052;-64
2023/12/24 02:07:34;;;;;;;5.30;2.77;;;;;;;1.05;80.57;98082.90;1729418;83;21020;-66
2023/12/24 02:10:05;;;;;;;6.58;2.87;;;;;;;1.05;80.19;98079.38;1729449;83;21115;-64
2023/12/24 02:12:36;;;;;;;5.78;2.75;;;;;;;1.00;79.93;98081.81;1729507;83;21064;-66
2023/12/24 02:15:05;;;;;;;8.88;2.92;;;;;;;0.98;79.97;98087.91;1729425;83;21115;-65
2023/12/24 02:17:34;;;;;;;5.62;3.02;;;;;;;0.98;79.95;98090.09;1729465;83;20996;-63
2023/12/24 02:20:03;;;;;;;8.70;2.85;;;;;;;0.98;79.82;98091.95;1729285;83;21064;-65
2023/12/24 02:22:31;;;;;;;4.97;2.70;;;;;;;0.95;79.68;98092.66;1729268;83;21492;-63
2023/12/24 02:25:00;;;;;;;5.70;2.85;;;;;;;0.95;79.74;98094.02;1729217;83;21211;-65
2023/12/24 02:27:47;;;;;;;8.30;3.25;;;;;;;0.95;79.30;98102.10;1729411;83;21028;-64
2023/12/24 02:30:20;;;;;;;5.97;2.90;;;;;;;0.92;79.31;98101.66;1729248;83;21167;-64
2023/12/24 02:32:53;;;;;;;7.65;3.00;;;;;;;0.91;79.39;98092.73;1729176;83;21079;-64
2023/12/24 02:35:22;;;;;;;6.17;3.22;;;;;;;0.90;79.39;98103.20;1729340;83;21071;-66
2023/12/24 02:37:51;;;;;;;5.78;3.00;;;;;;;0.92;79.39;98109.23;1729361;83;21036;-63
2023/12/24 02:40:20;;;;;;;6.92;2.58;;;;;;;0.91;79.48;98115.64;1729419;83;21021;-64
2023/12/24 02:42:48;;;;;;;7.05;2.65;;;;;;;0.91;79.51;98104.86;1729396;83;21095;-65
2023/12/24 02:45:18;;;;;;;4.72;2.42;;;;;;;0.92;79.52;98115.97;1729138;83;21013;-64
2023/12/24 02:47:47;;;;;;;7.95;2.90;;;;;;;0.94;79.42;98121.16;1729243;83;21468;-64
2023/12/24 02:50:19;;;;;;;8.80;3.20;;;;;;;0.93;79.45;98116.80;1729552;83;21052;-64
2023/12/24 02:52:48;;;;;;;6.20;3.50;;;;;;;0.92;79.52;98124.05;1727351;82;21071;-65
2023/12/24 02:55:18;;;;;;;6.25;2.67;;;;;;;0.94;79.24;98131.43;1726952;83;21064;-66
2023/12/24 02:57:48;;;;;;;8.25;2.80;;;;;;;0.92;79.31;98130.79;1726840;83;21079;-65
2023/12/24 03:00:18;;;;;;;5.97;2.70;;;;;;;0.94;79.38;98132.78;1726917;83;21005;-65
2023/12/24 03:02:46;;;;;;;4.97;2.50;;;;;;;0.94;79.47;98131.43;1726937;83;21060;-64
2023/12/24 03:05:15;;;;;;;5.90;2.50;;;;;;;0.95;79.39;98133.62;1727152;83;21068;-66
2023/12/24 03:07:44;;;;;;;5.83;2.65;;;;;;;0.93;79.29;98140.55;1727122;83;21016;-66
2023/12/24 03:10:14;;;;;;;7.33;3.00;;;;;;;0.92;79.32;98141.58;1726982;83;20997;-65
2023/12/24 03:12:42;;;;;;;6.95;2.20;;;;;;;0.91;79.26;98145.30;1726984;83;21075;-64
2023/12/24 03:15:11;;;;;;;5.60;2.52;;;;;;;0.90;79.15;98154.92;1726956;83;21017;-65
2023/12/24 03:17:40;;;;;;;11.20;3.02;;;;;;;0.90;79.23;98149.02;1727171;83;21009;-64
2023/12/24 03:20:10;;;;;;;8.30;3.45;;;;;;;0.91;79.29;98152.55;1727058;83;21488;-66
2023/12/24 03:22:39;;;;;;;4.40;2.50;;;;;;;0.91;79.21;98158.77;1726966;83;21032;-63
2023/12/24 03:25:08;;;;;;;7.08;2.50;;;;;;;0.92;79.22;98165.00;1727065;83;21452;-63
2023/12/24 03:27:36;;;;;;;7.58;2.85;;;;;;;0.92;78.93;98163.14;1727064;83;21033;-65
2023/12/24 03:30:06;;;;;;;7.33;3.22;;;;;;;0.92;78.86;98165.83;1727227;83;21052;-65
2023/12/24 03:32:35;;;;;;;5.00;2.20;;;;;;;0.93;78.77;98170.71;1727200;83;21027;-64
2023/12/24 03:35:05;;;;;;;5.60;2.67;;;;;;;0.91;78.55;98169.55;1727264;83;20980;-64
2023/12/24 03:37:34;;;;;;;6.15;2.70;;;;;;;0.91;78.59;98183.03;1727094;83;21080;-64
2023/12/24 03:40:05;;;;;;;5.15;2.83;;;;;;;0.90;78.60;98181.36;1727034;83;21061;-65
2023/12/24 03:42:33;;;;;;;9.35;2.90;;;;;;;0.91;78.65;98184.89;1727192;83;21040;-65
2023/12/24 03:45:03;;;;;;;6.33;2.65;;;;;;;0.91;78.54;98191.63;1727106;83;21083;-64
2023/12/24 03:47:32;;;;;;;5.03;2.58;;;;;;;0.89;78.62;98187.78;1727097;83;21060;-65
2023/12/24 03:50:00;;;;;;;8.78;3.00;;;;;;;0.90;78.73;98194.84;1727032;83;21103;-65
2023/12/24 03:52:29;;;;;;;8.08;3.02;;;;;;;0.90;78.60;98196.70;1740832;81;21130;-64
2023/12/24 03:54:58;;;;;;;5.08;2.70;;;;;;;0.89;78.77;98193.69;1753348;82;21066;-65
2023/12/24 03:57:27;;;;;;;7.78;2.90;;;;;;;0.90;78.88;98194.01;1753425;82;21040;-64
2023/12/24 03:59:56;;;;;;;10.78;3.10;;;;;;;0.87;78.50;98191.18;1753392;82;21023;-64
2023/12/24 04:02:24;;;;;;;9.03;3.20;;;;;;;0.86;78.45;98192.72;1753166;82;21019;-62
2023/12/24 04:04:53;;;;;;;6.50;3.20;;;;;;;0.85;78.27;98197.78;1753402;82;21015;-65
2023/12/24 04:07:22;;;;;;;8.73;2.80;;;;;;;0.84;78.35;98199.64;1753419;82;21011;-64
2023/12/24 04:09:51;;;;;;;4.83;2.42;;;;;;;0.84;78.29;98192.91;1753228;82;21094;-64
2023/12/24 04:12:20;;;;;;;5.30;2.60;;;;;;;0.83;78.03;98196.63;1753357;82;20979;-63
2023/12/24 04:14:49;;;;;;;5.80;2.60;;;;;;;0.82;78.10;98204.91;1724132;82;21050;-65
2023/12/24 04:17:17;;;;;;;7.92;2.87;;;;;;;0.82;78.11;98207.59;1753365;82;21047;-64
2023/12/24 04:19:46;;;;;;;6.55;2.62;;;;;;;0.82;78.20;98207.59;1753151;82;21051;-64
2023/12/24 04:22:15;;;;;;;6.37;2.52;;;;;;;0.80;78.08;98213.18;1753187;82;21074;-65
2023/12/24 04:24:43;;;;;;;6.67;2.83;;;;;;;0.79;78.18;98220.94;1753239;82;21059;-65
2023/12/24 04:27:12;;;;;;;5.60;2.20;;;;;;;0.79;78.18;98232.23;1753212;82;21027;-65
2023/12/24 04:29:41;;;;;;;6.45;2.05;;;;;;;0.80;78.29;98232.05;1724453;82;21100;-66
2023/12/24 04:32:10;;;;;;;4.53;2.00;;;;;;;0.77;78.21;98237.81;1723596;82;21491;-65
2023/12/24 04:34:39;;;;;;;9.63;2.72;;;;;;;0.76;78.19;98234.80;1753574;82;21194;-65
2023/12/24 04:37:09;;;;;;;7.08;2.70;;;;;;;0.76;78.31;98226.70;1753231;82;21059;-67
2023/12/24 04:39:38;;;;;;;6.00;2.80;;;;;;;0.77;78.37;98236.98;1753222;82;21007;-65
2023/12/24 04:42:06;;;;;;;7.00;3.12;;;;;;;0.75;78.49;98235.82;1753196;82;21003;-65
2023/12/24 04:44:38;;;;;;;5.75;2.70;;;;;;;0.75;78.68;98234.47;1753407;82;21087;-65
2023/12/24 04:47:07;;;;;;;5.37;2.80;;;;;;;0.76;78.74;98241.53;1753211;82;21455;-64
2023/12/24 04:49:37;;;;;;;6.05;2.27;;;;;;;0.78;78.72;98246.73;1753326;82;21051;-65
2023/12/24 04:52:06;;;;;;;8.05;2.95;;;;;;;0.78;78.68;98248.08;1701096;82;21129;-65
2023/12/24 04:54:34;;;;;;;5.08;2.55;;;;;;;0.77;78.50;98248.59;1753127;82;21490;-64
2023/12/24 04:57:05;;;;;;;4.60;2.20;;;;;;;0.76;78.47;98247.44;1753311;82;21197;-66
2023/12/24 04:59:34;;;;;;;5.75;2.40;;;;;;;0.73;78.38;98254.03;1753263;82;21078;-64
2023/12/24 05:02:03;;;;;;;5.67;2.70;;;;;;;0.72;78.51;98245.63;1753163;82;21015;-65
2023/12/24 05:04:34;;;;;;;6.97;2.80;;;;;;;0.73;78.64;98251.85;1753385;82;21023;-64
2023/12/24 05:07:03;;;;;;;6.83;2.62;;;;;;;0.72;78.70;98259.10;1753108;82;21039;-65
2023/12/24 05:09:32;;;;;;;8.78;3.75;;;;;;;0.70;78.65;98255.76;1723830;82;21035;-65
2023/12/24 05:12:00;;;;;;;6.80;3.40;;;;;;;0.69;78.64;98255.44;1753186;82;21035;-64
2023/12/24 05:14:29;;;;;;;8.48;3.58;;;;;;;0.68;78.67;98263.20;1753257;82;21047;-65
2023/12/24 05:16:58;;;;;;;5.58;2.70;;;;;;;0.69;78.74;98264.03;1723945;82;21094;-65
2023/12/24 05:19:26;;;;;;;8.85;2.55;;;;;;;0.68;78.47;98267.23;1753279;82;21436;-64
2023/12/24 05:21:55;;;;;;;5.87;2.70;;;;;;;0.69;78.66;98262.68;1753240;82;21083;-65
2023/12/24 05:24:23;;;;;;;6.75;2.80;;;;;;;0.71;78.67;98261.98;1753428;82;21019;-64
2023/12/24 05:26:53;;;;;;;7.72;3.00;;;;;;;0.71;78.70;98266.86;1753373;82;21043;-65
2023/12/24 05:29:21;;;;;;;10.13;3.30;;;;;;;0.73;78.66;98261.28;1753410;82;21019;-65
2023/12/24 05:31:50;;;;;;;5.12;2.67;;;;;;;0.73;78.70;98275.59;1753399;82;21071;-65
2023/12/24 05:34:19;;;;;;;7.37;2.50;;;;;;;0.75;78.44;98274.06;1753103;82;21078;-65
2023/12/24 05:36:48;;;;;;;8.08;2.70;;;;;;;0.72;78.44;98269.88;1753241;82;21459;-63
2023/12/24 05:39:16;;;;;;;9.18;3.12;;;;;;;0.73;78.43;98271.55;1753181;82;21035;-65
2023/12/24 05:41:45;;;;;;;5.97;2.40;;;;;;;0.73;78.34;98278.80;1753387;82;21098;-64
2023/12/24 05:44:13;;;;;;;12.35;3.60;;;;;;;0.73;78.51;98286.37;1753139;82;21082;-65
2023/12/24 05:46:42;;;;;;;6.33;2.50;;;;;;;0.75;78.53;98289.72;1753054;82;21536;-65
2023/12/24 05:49:11;;;;;;;5.83;2.42;;;;;;;0.76;78.39;98288.69;1753423;82;21035;-63
2023/12/24 05:51:39;;;;;;;6.40;2.60;;;;;;;0.76;78.11;98295.43;1753186;82;21079;-65
2023/12/24 05:54:08;;;;;;;8.55;2.70;;;;;;;0.79;78.18;98292.88;1753170;82;21094;-63
2023/12/24 05:56:36;;;;;;;5.62;2.65;;;;;;;0.77;77.94;98300.31;1753165;82;21039;-67
2023/12/24 05:59:06;;;;;;;7.00;2.65;;;;;;;0.75;77.93;98311.79;1753168;82;21034;-64
2023/12/24 06:01:34;;;;;;;6.92;2.50;;;;;;;0.74;77.85;98315.00;1753130;82;21063;-64
2023/12/24 06:04:04;;;;;;;7.08;2.40;;;;;;;0.74;77.88;98314.16;1688699;84;21076;-65
2023/12/24 06:06:32;;;;;;;6.03;2.85;;;;;;;0.75;77.90;98317.18;1688564;85;21511;-65
2023/12/24 06:09:01;;;;;;;5.67;2.50;;;;;;;0.73;77.92;98325.45;1688601;85;21496;-66
2023/12/24 06:11:30;;;;;;;6.62;2.40;;;;;;;0.73;77.94;98336.74;1688553;85;21488;-64
2023/12/24 06:13:59;;;;;;;8.78;2.75;;;;;;;0.71;77.92;98323.97;1688604;85;21130;-65
2023/12/24 06:16:28;;;;;;;10.98;3.22;;;;;;;0.70;77.98;98329.86;1688558;85;21503;-65
2023/12/24 06:18:56;;;;;;;8.78;2.95;;;;;;;0.70;78.09;98331.72;1688635;85;21123;-65
2023/12/24 06:21:25;;;;;;;8.13;2.75;;;;;;;0.69;78.13;98336.28;1700100;82;21023;-65
2023/12/24 06:23:54;;;;;;;7.42;2.90;;;;;;;0.70;78.18;98341.98;1753189;82;20999;-65
2023/12/24 06:26:23;;;;;;;6.83;3.08;;;;;;;0.72;78.22;98341.30;1753132;82;21126;-64
2023/12/24 06:28:52;;;;;;;8.93;3.62;;;;;;;0.72;78.21;98338.59;1753151;82;21074;-65
2023/12/24 06:31:26;;;;;;;6.42;3.17;;;;;;;0.74;78.40;98344.64;1753289;82;21031;-65
2023/12/24 06:33:52;;;;;;;9.98;2.98;;;;;;;0.76;78.58;98346.64;1752728;82;21051;-63
2023/12/24 06:36:20;;;;;;;7.72;3.55;;;;;;;0.76;78.61;98347.15;1753147;82;21011;-65
2023/12/24 06:38:50;;;;;;;9.23;3.87;;;;;;;0.77;78.72;98348.31;1753190;82;21039;-65
2023/12/24 06:41:18;;;;;;;8.55;3.20;;;;;;;0.77;79.00;98350.17;1753381;82;21031;-65
2023/12/24 06:43:47;;;;;;;8.63;3.58;;;;;;;0.77;79.22;98355.56;1724070;82;21059;-65
2023/12/24 06:46:15;;;;;;;8.65;4.17;;;;;;;0.76;79.60;98356.58;1753488;82;21078;-65
2023/12/24 06:48:44;;;;;;;8.38;4.10;;;;;;;0.75;79.92;98361.14;1753409;82;20983;-64
2023/12/24 06:51:13;;;;;;;8.93;4.10;;;;;;;0.75;80.36;98365.69;1753205;82;21039;-65
2023/12/24 06:53:41;;;;;;;9.03;4.62;;;;;;;0.76;80.95;98366.02;1751508;80;21047;-65
2023/12/24 06:56:10;;;;;;;9.05;3.87;;;;;;;0.76;81.29;98374.10;1731865;82;21479;-65
2023/12/24 06:58:39;;;;;;;7.20;3.20;;;;;;;0.76;81.72;98374.10;1750653;82;21467;-65
2023/12/24 07:01:07;;;;;;;7.00;3.00;;;;;;;0.74;82.24;98375.63;1750703;82;21070;-64
2023/12/24 07:03:37;;;;;;;8.93;3.70;;;;;;;0.72;82.62;98370.10;1731699;82;21470;-65
2023/12/24 07:06:06;;;;;;;9.03;3.70;;;;;;;0.70;83.05;98382.41;1750608;82;21055;-65
2023/12/24 07:08:35;;;;;;;6.12;3.25;;;;;;;0.66;83.57;98387.01;1750552;82;21035;-65
2023/12/24 07:11:04;;;;;;;8.25;3.52;;;;;;;0.64;84.13;98387.16;1750633;82;21023;-66
2023/12/24 07:13:33;;;;;;;9.80;3.35;;;;;;;0.63;84.58;98388.19;1750754;82;21015;-65
2023/12/24 07:16:03;;;;;;;9.53;3.90;;;;;;;0.63;85.31;98382.80;1750477;82;21027;-65
2023/12/24 07:18:31;;;;;;;9.78;3.90;;;;;;;0.60;85.72;98391.24;1750763;82;21031;-65
2023/12/24 07:21:00;;;;;;;8.50;3.58;;;;;;;0.59;86.12;98386.36;1731634;82;21074;-66
2023/12/24 07:23:28;;;;;;;8.93;4.08;;;;;;;0.61;86.48;98391.57;1750786;82;21062;-66
2023/12/24 07:25:57;;;;;;;11.70;4.28;;;;;;;0.60;86.77;98399.33;1750609;82;21474;-66
2023/12/24 07:28:26;;;;;;;7.78;3.80;;;;;;;0.60;87.26;98393.42;1731753;82;21087;-67
2023/12/24 07:30:54;;;;;;;7.83;3.80;;;;;;;0.59;87.69;98401.69;1750688;82;21064;-65
2023/12/24 07:33:22;;;;;;;8.18;3.50;;;;;;;0.59;87.89;98400.34;1750525;82;21003;-64
2023/12/24 07:35:51;;;;;;;8.63;3.85;;;;;;;0.59;88.14;98397.66;1750654;82;21069;-65
2023/12/24 07:38:20;;;;;;;8.63;3.95;;;;;;;0.59;88.32;98405.73;1750614;82;21031;-65
2023/12/24 07:40:48;;;;;;;8.20;3.65;;;;;;;0.59;88.48;98405.73;1750511;82;21075;-65
2023/12/24 07:43:17;;;;;;;9.55;3.60;;;;;;;0.60;88.67;98414.98;1750573;82;21071;-65
2023/12/24 07:45:46;;;;;;;9.18;3.45;;;;;;;0.60;88.87;98412.80;1750882;82;21556;-64
2023/12/24 07:48:14;;;;;;;7.72;3.62;;;;;;;0.58;89.05;98408.10;1750698;82;21479;-65
2023/12/24 07:50:43;;;;;;;7.42;3.65;;;;;;;0.58;89.37;98408.94;1750723;82;21103;-66
2023/12/24 07:53:11;;;;;;;9.83;3.87;;;;;;;0.58;89.47;98417.02;1751051;80;21058;-65
2023/12/24 07:55:41;;;;;;;10.88;4.20;;;;;;;0.59;89.65;98424.59;1730306;80;21492;-66
2023/12/24 07:58:09;;;;;;;9.13;3.90;;;;;;;0.57;89.81;98428.82;1726909;83;21076;-65
2023/12/24 08:00:38;;;;;;;10.85;3.58;;;;;;;0.57;89.94;98433.38;1727143;83;21008;-65
2023/12/24 08:03:06;;;;;;;7.05;3.10;;;;;;;0.58;90.17;98439.09;1710971;83;21087;-65
2023/12/24 08:05:35;;;;;;;8.08;3.20;;;;;;;0.58;90.15;98439.09;1727252;83;21048;-65
2023/12/24 08:08:05;;;;;;;8.98;3.55;;;;;;;0.55;90.03;98431.37;1726967;83;20997;-64
2023/12/24 08:10:33;;;;;;;6.80;3.25;;;;;;;0.52;90.14;98438.47;1727212;83;21048;-65
2023/12/24 08:13:03;;;;;;;9.30;3.80;;;;;;;0.51;90.34;98451.10;1710997;83;21091;-65
2023/12/24 08:15:35;;;;;;;7.25;3.37;;;;;;;0.51;90.45;98448.92;1726058;82;21522;-64
2023/12/24 08:18:04;;;;;;;8.05;3.08;;;;;;;0.52;90.61;98451.94;1726893;83;21549;-64
2023/12/24 08:20:34;;;;;;;8.80;3.10;;;;;;;0.51;90.64;98459.19;1726839;83;21064;-65
2023/12/24 08:23:03;;;;;;;8.20;3.40;;;;;;;0.53;90.85;98459.84;1726769;83;21009;-65
2023/12/24 08:25:35;;;;;;;6.95;3.52;;;;;;;0.53;91.04;98465.73;1727074;83;21063;-65
2023/12/24 08:28:07;;;;;;;10.08;3.87;;;;;;;0.54;91.16;98467.41;1711220;83;21044;-65
2023/12/24 08:30:36;;;;;;;11.48;4.40;;;;;;;0.54;91.26;98466.91;1710775;83;21052;-65
2023/12/24 08:33:06;;;;;;;7.28;3.50;;;;;;;0.51;91.24;98470.47;1727024;83;21056;-65
2023/12/24 08:35:36;;;;;;;8.08;3.47;;;;;;;0.51;91.59;98467.78;1727023;83;21091;-64
2023/12/24 08:38:05;;;;;;;8.63;3.87;;;;;;;0.54;91.77;98474.15;1726951;83;21033;-65
2023/12/24 08:40:33;;;;;;;6.30;3.37;;;;;;;0.56;91.82;98476.16;1726968;83;21056;-65
2023/12/24 08:43:03;;;;;;;8.85;3.85;;;;;;;0.58;91.93;98470.08;1726891;83;20992;-65
2023/12/24 08:45:32;;;;;;;7.00;3.60;;;;;;;0.59;91.85;98483.87;1726874;83;21484;-65
2023/12/24 08:48:00;;;;;;;6.45;3.22;;;;;;;0.58;91.98;98470.91;1727095;83;21012;-66
2023/12/24 08:50:29;;;;;;;8.58;3.10;;;;;;;0.61;92.02;98483.18;1727175;83;21028;-66
2023/12/24 08:52:58;;;;;;;11.63;3.90;;;;;;;0.59;91.90;98477.14;1710684;83;21024;-65
2023/12/24 08:55:26;;;;;;;6.70;3.62;;;;;;;0.58;91.86;98476.81;1710734;83;21140;-65
2023/12/24 08:57:55;;;;;;;8.33;3.45;;;;;;;0.58;91.88;98478.16;1747877;82;21126;-64
2023/12/24 09:00:24;;;;;;;7.60;3.58;;;;;;;0.56;91.85;98477.50;1723802;82;21047;-64
2023/12/24 09:02:52;;;;;;;10.13;3.50;;;;;;;0.53;91.97;98471.13;1753328;82;21020;-64
2023/12/24 09:05:22;;;;;;;8.78;3.50;;;;;;;0.49;92.05;98479.24;1753379;82;21023;-63
2023/12/24 09:07:51;;;;;;;7.53;3.62;;;;;;;0.49;92.35;98485.47;1723896;82;21043;-63
2023/12/24 09:10:19;;;;;;;11.18;3.65;;;;;;;0.49;92.28;98482.77;1753319;82;20995;-65
2023/12/24 09:12:48;;;;;;;9.05;3.75;;;;;;;0.45;92.34;98484.16;1753159;82;21019;-63
2023/12/24 09:15:17;;;;;;;9.75;3.95;;;;;;;0.43;92.55;98486.19;1753186;82;21067;-64
2023/12/24 09:17:46;;;;;;;6.78;3.30;;;;;;;0.44;92.54;98494.60;1756457;80;21483;-68
2023/12/24 09:20:15;;;;;;;7.03;3.65;;;;;;;0.47;92.76;98490.70;1691874;83;21092;-66
2023/12/24 09:22:44;;;;;;;7.33;3.50;;;;;;;0.58;93.31;98496.51;1690861;84;21066;-66
2023/12/24 09:25:13;;;;;;;6.60;3.20;;;;;;;0.66;92.83;98496.98;1712902;84;21027;-66
2023/12/24 09:27:42;;;;;;;5.80;3.55;;;;;;;0.66;92.31;98502.38;1726803;81;21067;-66
2023/12/24 09:30:12;;;;;;;6.15;3.10;;;;;;;0.64;91.63;98505.22;1723196;83;21157;-68
2023/12/24 09:32:43;;;;;;;6.08;3.10;;;;;;;0.62;91.37;98498.33;1723178;83;21482;-67
2023/12/24 09:35:12;;;;;;;9.03;3.33;;;;;;;0.63;91.15;98517.52;1723405;83;21039;-65
2023/12/24 09:37:40;;;;;;;9.15;2.60;;;;;;;0.64;90.84;98504.38;1755729;80;21031;-65
2023/12/24 09:40:09;;;;;;;9.08;3.45;;;;;;;0.67;90.62;98501.86;1778871;81;21528;-67
2023/12/24 09:42:38;;;;;;;8.03;3.20;;;;;;;0.67;90.31;98497.31;1749451;81;21059;-65
2023/12/24 09:45:08;;;;;;;7.70;3.47;;;;;;;0.67;89.91;98512.64;1679106;84;21236;-66
2023/12/24 09:47:37;;;;;;;8.93;3.67;;;;;;;0.66;89.56;98502.88;1741708;82;21471;-67
2023/12/24 09:50:07;;;;;;;7.37;3.62;;;;;;;0.66;89.21;98509.11;1706286;83;21563;-68
2023/12/24 09:52:36;;;;;;;6.87;3.00;;;;;;;0.67;89.03;98512.64;1744881;82;21342;-66
2023/12/24 09:55:05;;;;;;;7.10;3.22;;;;;;;0.68;88.40;98511.62;1742930;82;21024;-67
2023/12/24 09:57:34;;;;;;;7.20;2.98;;;;;;;0.67;88.38;98522.91;1739140;81;21068;-66
2023/12/24 10:00:08;;;;;;;6.62;2.87;;;;;;;0.68;88.15;98515.16;1737054;82;21063;-67
2023/12/24 10:02:34;;;;;;;10.18;3.60;;;;;;;0.70;88.01;98512.28;1736702;82;21039;-67
2023/12/24 10:05:04;;;;;;;6.00;3.17;;;;;;;0.72;87.91;98507.03;1698870;84;21112;-68
2023/12/24 10:07:42;;;;;;;7.37;3.42;;;;;;;0.75;87.81;98503.14;1678906;85;21546;-66
2023/12/24 10:10:11;;;;;;;8.55;4.00;;;;;;;0.77;87.57;98508.67;1699051;84;21041;-67
2023/12/24 10:12:43;;;;;;;9.60;4.20;;;;;;;0.77;87.26;98514.06;1679097;85;21076;-65
2023/12/24 10:15:12;;;;;;;10.08;4.00;;;;;;;0.78;87.23;98516.25;1698793;83;21108;-67
2023/12/24 10:17:40;;;;;;;10.40;5.03;;;;;;;0.82;87.30;98511.66;1679087;85;21064;-66
2023/12/24 10:20:11;;;;;;;9.75;3.58;;;;;;;0.86;87.36;98519.71;1737002;82;21095;-67
2023/12/24 10:22:40;;;;;;;7.92;3.20;;;;;;;0.91;87.03;98513.27;1736853;81;21078;-66
2023/12/24 10:25:09;;;;;;;8.20;3.70;;;;;;;0.92;86.52;98510.89;1695423;82;21103;-65
2023/12/24 10:27:38;;;;;;;6.95;3.27;;;;;;;0.94;86.37;98519.64;1699796;83;21049;-68
2023/12/24 10:30:13;;;;;;;10.15;3.42;;;;;;;0.96;86.15;98516.76;1708124;83;21098;-67
2023/12/24 10:32:42;;;;;;;7.47;3.12;;;;;;;0.99;85.92;98510.16;1708005;83;21008;-67
2023/12/24 10:35:12;;;;;;;8.13;2.80;;;;;;;1.02;85.76;98513.33;1707926;83;21107;-67
2023/12/24 10:37:41;;;;;;;9.78;3.42;;;;;;;1.04;85.18;98522.08;1667746;84;21468;-67
2023/12/24 10:40:11;;;;;;;7.35;3.62;;;;;;;1.05;84.88;98524.26;1708023;83;21044;-67
2023/12/24 10:42:40;;;;;;;6.67;3.42;;;;;;;1.06;84.17;98535.38;1708208;84;21119;-67
2023/12/24 10:45:09;;;;;;;6.90;3.25;;;;;;;1.06;83.85;98528.13;1690190;84;21100;-67
2023/12/24 10:47:39;;;;;;;6.67;2.95;;;;;;;1.05;83.58;98527.80;1708040;84;21459;-67
2023/12/24 10:50:09;;;;;;;6.22;2.98;;;;;;;1.06;83.22;98528.13;1707998;84;21052;-68
2023/12/24 10:52:38;;;;;;;6.37;3.30;;;;;;;1.06;82.97;98532.67;1708118;84;21012;-67
2023/12/24 10:55:07;;;;;;;5.60;2.92;;;;;;;1.08;82.92;98531.98;1707853;84;21111;-66
2023/12/24 10:58:05;;;;;;;6.95;2.75;;;;;;;1.09;82.24;98541.75;1709897;83;21142;-65
2023/12/24 11:00:34;;;;;;;5.33;1.92;;;;;;;1.06;81.78;98543.47;1712644;83;21051;-67
2023/12/24 11:03:03;;;;;;;5.58;2.75;;;;;;;1.06;81.85;98547.51;1712661;83;21023;-66
2023/12/24 11:05:46;;;;;;;6.33;2.90;;;;;;;1.04;80.72;98548.20;1693436;83;21084;-67
2023/12/24 11:08:27;;;;;;;5.40;2.40;;;;;;;1.07;81.11;98566.20;1660523;86;21118;-67
2023/12/24 11:11:06;;;;;;;5.08;2.58;;;;;;;1.08;80.90;98564.34;1685601;85;21106;-66
2023/12/24 11:13:44;;;;;;;6.10;2.90;;;;;;;1.08;80.80;98558.44;1714014;83;21063;-67
2023/12/24 11:16:37;;;;;;;5.75;2.80;;;;;;;1.08;80.93;98561.64;1660379;85;21074;-65
2023/12/24 11:19:06;;;;;;;5.85;2.70;;;;;;;1.07;80.64;98565.36;1680881;85;21526;-66
2023/12/24 11:21:40;;;;;;;7.78;3.00;;;;;;;1.09;80.80;98572.25;1682778;84;21168;-65
2023/12/24 11:24:14;;;;;;;7.10;3.02;;;;;;;1.10;80.74;98571.23;1671058;85;21080;-66
2023/12/24 11:26:53;;;;;;;5.17;2.85;;;;;;;1.12;81.00;98573.23;1682881;84;21502;-66
2023/12/24 11:29:46;;;;;;;6.78;3.40;;;;;;;1.13;81.10;98573.56;1681367;85;21529;-66
2023/12/24 11:32:32;;;;;;;6.95;2.70;;;;;;;1.13;81.22;98578.11;1703656;84;21571;-67
2023/12/24 11:35:02;;;;;;;5.65;2.95;;;;;;;1.14;81.23;98584.68;1688387;85;21055;-65
2023/12/24 11:37:39;;;;;;;6.90;2.80;;;;;;;1.13;80.91;98587.56;1703672;83;21076;-66
2023/12/24 11:40:12;;;;;;;5.42;2.83;;;;;;;1.14;80.95;98590.58;1688486;85;21451;-66
2023/12/24 11:42:46;;;;;;;5.58;2.98;;;;;;;1.14;81.22;98596.81;1703315;83;21069;-68
2023/12/24 11:45:29;;;;;;;6.65;2.70;;;;;;;1.14;81.08;98598.67;1688293;85;21051;-66
2023/12/24 11:47:57;;;;;;;8.58;3.10;;;;;;;1.11;80.97;98591.78;1703705;83;21029;-66
2023/12/24 11:50:26;;;;;;;5.58;2.87;;;;;;;1.10;80.87;98596.02;1688251;85;21083;-65
2023/12/24 11:52:55;;;;;;;6.40;2.98;;;;;;;1.09;81.11;98598.37;1703487;84;21498;-66